Time;durP1;ratioP1;P1;durP2;ratioP2;P2;SDS_P1;SDS_P2;PMS_P1;PMS_P2;Temp;Humidity;BMP_temperature;BMP_pressure;BME280_temperature;BME280_humidity;BME280_pressure;Samples;Min_cycle;Max_cycle;Signal;HPM_P1;HPM_P2
2022/10/10 00:01:15;;;;;;;3.40;2.87;;;10.90;99.90;;;;;;5057244;28;20741;-56
2022/10/10 00:03:43;;;;;;;3.70;2.73;;;10.90;99.90;;;;;;5057071;28;20441;-58
2022/10/10 00:06:11;;;;;;;3.30;2.77;;;10.80;99.90;;;;;;5057907;28;20443;-59
2022/10/10 00:08:39;;;;;;;3.63;3.07;;;10.90;99.90;;;;;;5058265;28;20437;-55
2022/10/10 00:11:07;;;;;;;3.27;2.73;;;10.80;99.90;;;;;;5058283;28;20490;-54
2022/10/10 00:13:35;;;;;;;5.60;2.97;;;10.80;99.90;;;;;;5056968;28;20525;-59
2022/10/10 00:16:04;;;;;;;3.13;2.77;;;10.70;99.90;;;;;;5057809;28;20468;-55
2022/10/10 00:18:32;;;;;;;4.57;2.90;;;10.70;99.90;;;;;;5057886;28;20490;-58
2022/10/10 00:20:59;;;;;;;4.10;2.43;;;10.70;99.90;;;;;;5055765;28;20867;-58
2022/10/10 00:23:29;;;;;;;3.03;2.50;;;10.70;99.90;;;;;;5055906;28;20458;-59
2022/10/10 00:25:56;;;;;;;3.80;2.70;;;10.70;99.90;;;;;;5057226;28;20462;-56
2022/10/10 00:28:26;;;;;;;4.37;3.63;;;10.70;99.90;;;;;;5055947;28;20454;-56
2022/10/10 00:30:53;;;;;;;8.90;3.33;;;10.70;99.90;;;;;;5056793;28;20490;-56
2022/10/10 00:33:22;;;;;;;5.37;3.20;;;10.60;99.90;;;;;;5056475;28;20458;-59
2022/10/10 00:35:49;;;;;;;3.20;2.90;;;10.60;99.90;;;;;;5056664;28;20462;-59
2022/10/10 00:38:20;;;;;;;3.60;3.00;;;10.50;99.90;;;;;;5056612;28;20473;-57
2022/10/10 00:40:49;;;;;;;3.10;2.80;;;10.50;99.90;;;;;;5056305;28;20501;-59
2022/10/10 00:43:18;;;;;;;3.50;2.80;;;10.40;99.90;;;;;;5056653;28;20469;-56
2022/10/10 00:45:46;;;;;;;11.23;3.07;;;10.40;99.90;;;;;;5056301;28;20461;-58
2022/10/10 00:48:19;;;;;;;4.83;2.80;;;10.40;99.90;;;;;;5056387;28;20767;-54
2022/10/10 00:50:56;;;;;;;5.53;3.03;;;10.40;99.90;;;;;;5057314;28;20931;-57
2022/10/10 00:53:26;;;;;;;3.87;2.77;;;10.30;99.90;;;;;;5056395;28;20865;-58
2022/10/10 00:55:55;;;;;;;7.10;3.57;;;10.30;99.90;;;;;;5055659;28;20485;-54
2022/10/10 00:58:24;;;;;;;4.87;3.13;;;10.20;99.90;;;;;;5057192;28;20466;-58
2022/10/10 01:00:57;;;;;;;8.30;4.50;;;10.30;99.90;;;;;;5057136;28;20454;-56
2022/10/10 01:03:26;;;;;;;4.20;3.23;;;10.20;99.90;;;;;;5057378;28;20895;-57
2022/10/10 01:05:55;;;;;;;4.03;2.50;;;10.20;99.90;;;;;;5057307;28;20458;-56
2022/10/10 01:08:23;;;;;;;8.53;3.30;;;10.20;99.90;;;;;;5057565;28;20462;-51
2022/10/10 01:11:07;;;;;;;4.40;2.93;;;10.20;99.90;;;;;;5057131;28;20465;-58
2022/10/10 01:13:39;;;;;;;5.93;2.80;;;10.30;99.90;;;;;;5057080;28;20593;-57
2022/10/10 01:16:16;;;;;;;4.00;3.23;;;10.30;99.90;;;;;;5057159;28;20458;-56
2022/10/10 01:18:51;;;;;;;3.63;3.23;;;10.30;99.90;;;;;;5056839;28;20462;-59
2022/10/10 01:21:32;;;;;;;4.23;2.70;;;10.30;99.90;;;;;;5057031;28;20522;-56
2022/10/10 01:24:23;;;;;;;3.43;2.90;;;10.30;99.90;;;;;;5056991;28;20466;-55
2022/10/10 01:27:36;;;;;;;3.43;2.93;;;10.30;99.90;;;;;;5057114;28;20437;-57
2022/10/10 01:30:12;;;;;;;3.87;3.30;;;10.20;99.90;;;;;;5037118;28;20476;-51
2022/10/10 01:32:44;;;;;;;3.50;3.20;;;10.30;99.90;;;;;;5057210;28;20444;-54
2022/10/10 01:35:28;;;;;;;4.70;3.07;;;10.30;99.90;;;;;;5056919;28;20444;-59
2022/10/10 01:38:06;;;;;;;4.77;2.77;;;10.30;99.90;;;;;;5056990;28;20462;-59
2022/10/10 01:40:39;;;;;;;4.00;2.90;;;10.20;99.90;;;;;;5055359;28;20556;-59
2022/10/10 01:43:08;;;;;;;4.00;2.67;;;10.20;99.90;;;;;;5054161;28;20458;-55
2022/10/10 01:45:37;;;;;;;2.73;2.53;;;10.20;99.90;;;;;;5055102;28;20538;-56
2022/10/10 01:48:07;;;;;;;4.70;4.30;;;10.20;99.90;;;;;;5055252;28;20463;-59
2022/10/10 01:50:49;;;;;;;3.40;2.70;;;10.20;99.90;;;;;;5055006;28;20989;-56
2022/10/10 01:53:21;;;;;;;4.10;3.03;;;10.20;99.90;;;;;;5055373;28;20481;-58
2022/10/10 01:55:54;;;;;;;4.30;3.27;;;10.20;99.90;;;;;;5054819;28;20478;-58
2022/10/10 01:58:52;;;;;;;3.97;2.70;;;10.10;99.90;;;;;;5052961;28;20879;-56
2022/10/10 02:01:26;;;;;;;4.20;2.97;;;10.00;99.90;;;;;;5055138;28;20457;-59
2022/10/10 02:04:00;;;;;;;3.07;2.77;;;10.00;99.90;;;;;;5055228;28;20948;-57
2022/10/10 02:06:35;;;;;;;3.43;3.03;;;10.00;99.90;;;;;;5055185;28;20552;-58
2022/10/10 02:09:08;;;;;;;8.70;3.27;;;9.90;99.90;;;;;;5054894;28;21009;-58
2022/10/10 02:11:38;;;;;;;5.33;2.73;;;9.80;99.90;;;;;;5055078;28;20577;-57
2022/10/10 02:14:12;;;;;;;3.63;3.33;;;9.70;99.90;;;;;;5054988;28;20943;-57
2022/10/10 02:16:45;;;;;;;5.33;3.60;;;9.60;99.90;;;;;;5055529;28;20455;-54
2022/10/10 02:19:21;;;;;;;5.63;3.07;;;9.40;99.90;;;;;;5054561;28;20463;-59
2022/10/10 02:21:49;;;;;;;7.33;3.30;;;9.30;99.90;;;;;;5053519;28;20460;-57
2022/10/10 02:24:21;;;;;;;4.10;2.90;;;9.30;99.90;;;;;;5055259;28;20777;-54
2022/10/10 02:26:56;;;;;;;4.47;3.03;;;9.40;99.90;;;;;;5054447;28;20551;-57
2022/10/10 02:29:26;;;;;;;3.70;3.20;;;9.20;99.90;;;;;;5055201;28;20902;-57
2022/10/10 02:32:02;;;;;;;5.83;3.10;;;9.30;99.90;;;;;;5058666;28;20852;-59
2022/10/10 02:34:33;;;;;;;3.63;2.80;;;9.30;99.90;;;;;;5041365;28;20433;-54
2022/10/10 02:37:04;;;;;;;5.50;3.23;;;9.30;99.90;;;;;;5040307;28;20847;-58
2022/10/10 02:39:36;;;;;;;3.60;3.00;;;9.20;99.90;;;;;;5040177;28;20438;-53
2022/10/10 02:42:04;;;;;;;4.50;3.33;;;9.10;99.90;;;;;;5040406;28;20466;-57
2022/10/10 02:44:32;;;;;;;5.53;3.03;;;9.10;99.90;;;;;;5040338;28;20532;-57
2022/10/10 02:47:01;;;;;;;4.47;3.07;;;9.10;99.90;;;;;;5040287;28;20463;-59
2022/10/10 02:49:32;;;;;;;3.53;3.23;;;9.10;99.90;;;;;;5039423;28;20793;-58
2022/10/10 02:51:59;;;;;;;3.57;3.10;;;9.10;99.90;;;;;;5039679;28;20495;-58
2022/10/10 02:54:26;;;;;;;3.93;3.30;;;9.00;99.90;;;;;;5039820;28;20464;-58
2022/10/10 02:56:54;;;;;;;4.77;3.23;;;9.00;99.90;;;;;;5058875;28;20459;-56
2022/10/10 02:59:21;;;;;;;7.67;4.10;;;9.10;99.90;;;;;;5059859;28;20451;-56
2022/10/10 03:01:48;;;;;;;6.60;3.00;;;9.10;99.90;;;;;;5059321;28;20523;-59
2022/10/10 03:04:17;;;;;;;4.53;3.23;;;9.20;99.90;;;;;;5059602;28;20443;-54
2022/10/10 03:06:46;;;;;;;3.73;3.03;;;9.10;99.90;;;;;;5059728;28;20441;-59
2022/10/10 03:09:14;;;;;;;3.87;3.30;;;9.10;99.90;;;;;;5059282;28;20801;-58
2022/10/10 03:11:41;;;;;;;5.50;3.37;;;8.90;99.90;;;;;;5059087;28;20543;-59
2022/10/10 03:14:08;;;;;;;5.03;3.93;;;8.90;99.90;;;;;;5059151;28;20464;-57
2022/10/10 03:16:35;;;;;;;3.90;3.40;;;8.90;99.90;;;;;;5059896;28;20437;-58
2022/10/10 03:19:07;;;;;;;4.97;3.97;;;8.90;99.90;;;;;;5059496;28;20473;-56
2022/10/10 03:21:35;;;;;;;6.23;4.17;;;8.90;99.90;;;;;;5059713;28;20516;-59
2022/10/10 03:24:04;;;;;;;5.23;3.40;;;9.00;99.90;;;;;;5058833;28;20462;-59
2022/10/10 03:26:31;;;;;;;10.63;4.40;;;9.00;99.90;;;;;;5059290;28;20524;-56
2022/10/10 03:28:59;;;;;;;5.40;3.30;;;9.10;99.90;;;;;;5059520;28;20850;-57
2022/10/10 03:31:26;;;;;;;5.43;4.10;;;9.20;99.90;;;;;;5058923;28;20494;-57
2022/10/10 03:33:53;;;;;;;6.00;4.43;;;9.20;99.90;;;;;;5058888;28;20462;-58
2022/10/10 03:36:21;;;;;;;4.47;3.47;;;9.20;99.90;;;;;;5058762;28;20468;-60
2022/10/10 03:38:49;;;;;;;5.33;3.80;;;9.20;99.90;;;;;;5058979;28;20468;-53
2022/10/10 03:41:17;;;;;;;5.07;4.57;;;9.20;99.90;;;;;;5058503;28;20480;-59
2022/10/10 03:43:44;;;;;;;4.70;3.30;;;9.20;99.90;;;;;;5058903;28;20462;-59
2022/10/10 03:46:13;;;;;;;6.43;3.70;;;9.20;99.90;;;;;;5058712;28;20465;-59
2022/10/10 03:48:43;;;;;;;4.47;4.00;;;9.20;99.90;;;;;;5058891;28;20472;-58
2022/10/10 03:51:10;;;;;;;5.60;4.77;;;9.10;99.90;;;;;;5058218;28;20582;-56
2022/10/10 03:53:37;;;;;;;7.67;4.07;;;9.10;99.90;;;;;;5058657;28;20635;-57
2022/10/10 03:56:06;;;;;;;4.10;3.40;;;9.10;99.90;;;;;;5058592;28;20458;-56
2022/10/10 03:58:34;;;;;;;4.73;3.50;;;9.20;99.90;;;;;;5058700;28;20544;-58
2022/10/10 04:01:03;;;;;;;5.80;4.17;;;9.20;99.90;;;;;;5059033;28;20525;-54
2022/10/10 04:03:33;;;;;;;4.70;3.63;;;9.20;99.90;;;;;;5058461;28;20468;-59
2022/10/10 04:06:01;;;;;;;5.40;3.50;;;9.20;99.90;;;;;;5058911;28;20563;-59
2022/10/10 04:08:28;;;;;;;6.50;4.13;;;9.20;99.90;;;;;;5058561;28;20830;-54
2022/10/10 04:10:56;;;;;;;5.23;3.80;;;9.20;99.90;;;;;;5057786;28;20490;-57
2022/10/10 04:13:26;;;;;;;4.63;3.97;;;9.20;99.90;;;;;;5057835;28;20572;-59
2022/10/10 04:15:57;;;;;;;4.40;3.70;;;9.20;99.90;;;;;;5058141;28;20441;-59
2022/10/10 04:18:25;;;;;;;5.50;4.00;;;9.10;99.90;;;;;;5058671;28;20462;-59
2022/10/10 04:20:52;;;;;;;5.03;4.03;;;9.20;99.90;;;;;;5058230;28;20458;-56
2022/10/10 04:23:20;;;;;;;5.87;4.00;;;9.10;99.90;;;;;;5057964;28;20448;-58
2022/10/10 04:25:50;;;;;;;5.13;3.97;;;9.20;99.90;;;;;;5057579;28;20470;-59
2022/10/10 04:28:17;;;;;;;7.53;4.10;;;9.10;99.90;;;;;;5058037;28;20463;-53
2022/10/10 04:30:47;;;;;;;4.80;3.93;;;9.10;99.90;;;;;;5058063;28;20494;-55
2022/10/10 04:33:15;;;;;;;4.60;3.63;;;9.00;99.90;;;;;;5057839;28;20942;-52
2022/10/10 04:35:43;;;;;;;6.07;4.50;;;9.00;99.90;;;;;;5057482;28;20867;-56
2022/10/10 04:38:10;;;;;;;10.10;4.97;;;9.00;99.90;;;;;;5057552;28;20445;-59
2022/10/10 04:40:37;;;;;;;8.57;4.97;;;9.00;99.90;;;;;;5058181;28;20465;-56
2022/10/10 04:43:04;;;;;;;6.77;4.43;;;9.10;99.90;;;;;;5057919;28;20523;-54
2022/10/10 04:45:31;;;;;;;5.30;4.20;;;9.10;99.90;;;;;;5058075;28;20462;-58
2022/10/10 04:48:00;;;;;;;5.30;4.17;;;9.10;99.90;;;;;;5057480;28;20466;-59
2022/10/10 04:50:30;;;;;;;5.53;4.33;;;9.00;99.90;;;;;;5057641;28;20484;-59
2022/10/10 04:52:57;;;;;;;4.40;4.00;;;8.90;99.90;;;;;;5055619;28;20905;-56
2022/10/10 04:55:25;;;;;;;6.67;4.67;;;8.80;99.90;;;;;;5053409;28;20465;-57
2022/10/10 04:57:55;;;;;;;8.80;4.50;;;8.70;99.90;;;;;;5054755;28;20469;-58
2022/10/10 05:00:25;;;;;;;5.30;4.20;;;8.80;99.90;;;;;;5052690;28;20465;-54
2022/10/10 05:02:52;;;;;;;7.23;5.00;;;8.80;99.90;;;;;;5055898;28;20456;-54
2022/10/10 05:05:21;;;;;;;7.03;4.30;;;8.80;99.90;;;;;;5055692;28;20464;-58
2022/10/10 05:07:51;;;;;;;5.27;4.30;;;8.80;99.90;;;;;;5056817;28;20469;-54
2022/10/10 05:10:19;;;;;;;5.47;4.30;;;8.80;99.90;;;;;;5057089;28;20561;-58
2022/10/10 05:12:46;;;;;;;9.23;4.50;;;8.90;99.90;;;;;;5055645;28;20529;-58
2022/10/10 05:15:13;;;;;;;5.43;4.33;;;8.80;99.90;;;;;;5055298;28;20974;-54
2022/10/10 05:17:40;;;;;;;5.37;4.63;;;8.80;99.90;;;;;;5053885;28;20484;-58
2022/10/10 05:20:08;;;;;;;7.30;5.20;;;8.80;99.90;;;;;;5053802;28;20473;-59
2022/10/10 05:22:37;;;;;;;7.03;5.07;;;8.80;1.00;;;;;;5055106;28;20480;-60
2022/10/10 05:25:04;;;;;;;7.13;4.77;;;8.80;99.90;;;;;;5054517;28;20493;-57
2022/10/10 05:27:34;;;;;;;7.20;4.37;;;8.80;1.00;;;;;;5055323;28;20462;-55
2022/10/10 05:30:05;;;;;;;8.20;4.43;;;8.80;1.00;;;;;;5053229;28;20481;-57
2022/10/10 05:32:32;;;;;;;9.67;4.40;;;8.70;99.90;;;;;;5057383;28;20496;-59
2022/10/10 05:34:59;;;;;;;4.50;4.10;;;8.70;1.00;;;;;;5055952;28;20458;-60
2022/10/10 05:37:28;;;;;;;5.60;4.60;;;8.60;1.00;;;;;;5055161;28;20770;-58
2022/10/10 05:39:56;;;;;;;6.93;4.00;;;8.60;1.00;;;;;;5054901;28;20478;-59
2022/10/10 05:42:24;;;;;;;5.37;4.87;;;8.60;1.00;;;;;;5055055;28;20450;-60
2022/10/10 05:44:51;;;;;;;5.17;4.30;;;8.50;1.00;;;;;;5055469;28;20462;-59
2022/10/10 05:47:18;;;;;;;5.87;4.03;;;8.50;1.00;;;;;;5053826;28;20465;-56
2022/10/10 05:49:48;;;;;;;8.37;4.30;;;8.60;1.00;;;;;;5056256;28;20439;-60
2022/10/10 05:52:15;;;;;;;6.37;4.50;;;8.50;1.00;;;;;;5057128;28;20498;-61
2022/10/10 05:54:42;;;;;;;5.17;4.23;;;8.50;1.00;;;;;;5056863;28;20436;-60
2022/10/10 05:57:11;;;;;;;6.67;4.20;;;8.50;1.00;;;;;;5054505;28;20433;-59
2022/10/10 05:59:38;;;;;;;7.73;4.67;;;8.50;1.00;;;;;;5055136;28;20768;-57
2022/10/10 06:02:05;;;;;;;7.10;4.33;;;8.60;1.00;;;;;;5055419;28;20516;-59
2022/10/10 06:04:32;;;;;;;6.33;4.73;;;8.60;1.00;;;;;;5058459;28;20556;-58
2022/10/10 06:07:01;;;;;;;6.60;5.00;;;8.50;1.00;;;;;;5057261;28;20755;-61
2022/10/10 06:09:29;;;;;;;7.57;5.80;;;8.60;1.00;;;;;;5060838;28;20473;-61
2022/10/10 06:11:56;;;;;;;4.70;4.10;;;8.70;1.00;;;;;;5060519;28;20764;-57
2022/10/10 06:14:24;;;;;;;6.00;4.60;;;8.80;1.00;;;;;;5060208;28;20493;-59
2022/10/10 06:16:52;;;;;;;27.20;5.93;;;8.80;1.00;;;;;;5060169;28;20465;-60
2022/10/10 06:19:20;;;;;;;4.50;4.10;;;8.80;1.00;;;;;;5058940;28;20873;-58
2022/10/10 06:21:48;;;;;;;7.20;4.70;;;8.80;1.00;;;;;;5059253;28;20462;-58
2022/10/10 06:24:18;;;;;;;6.47;4.80;;;8.90;1.00;;;;;;5059016;28;20462;-59
2022/10/10 06:26:46;;;;;;;7.93;4.33;;;8.90;1.00;;;;;;5059047;28;20614;-58
2022/10/10 06:29:13;;;;;;;6.30;4.17;;;8.90;1.00;;;;;;5059734;28;20465;-61
2022/10/10 06:31:42;;;;;;;5.87;4.87;;;9.00;1.00;;;;;;5059615;28;20475;-58
2022/10/10 06:34:09;;;;;;;7.57;4.67;;;9.10;1.00;;;;;;5060081;28;20596;-61
2022/10/10 06:36:36;;;;;;;5.40;4.67;;;9.10;1.00;;;;;;5059522;28;20456;-61
2022/10/10 06:39:03;;;;;;;6.40;4.90;;;9.20;1.00;;;;;;5060554;28;20880;-61
2022/10/10 06:41:31;;;;;;;8.10;4.97;;;9.20;1.00;;;;;;5060417;28;20461;-58
2022/10/10 06:43:58;;;;;;;5.83;5.07;;;9.30;1.00;;;;;;5060026;28;20436;-61
2022/10/10 06:46:27;;;;;;;7.13;4.60;;;9.40;1.00;;;;;;5060181;28;20466;-60
2022/10/10 06:48:58;;;;;;;5.60;4.70;;;9.40;1.00;;;;;;5060395;28;20462;-60
2022/10/10 06:51:25;;;;;;;5.30;4.80;;;9.50;1.00;;;;;;5059766;28;20531;-61
2022/10/10 06:53:55;;;;;;;10.67;4.90;;;9.70;1.00;;;;;;5059234;28;20938;-58
2022/10/10 06:56:23;;;;;;;5.83;4.30;;;9.80;1.00;;;;;;5058191;28;20465;-61
2022/10/10 06:58:50;;;;;;;8.10;5.63;;;10.00;1.00;;;;;;5059040;28;20519;-56
2022/10/10 07:01:19;;;;;;;5.73;4.33;;;10.20;1.00;;;;;;5059616;28;20463;-60
2022/10/10 07:03:46;;;;;;;8.73;4.53;;;10.40;1.00;;;;;;5059061;28;20440;-57
2022/10/10 07:06:19;;;;;;;8.47;4.43;;;10.60;99.90;;;;;;5059449;28;20470;-59
2022/10/10 07:08:49;;;;;;;5.60;4.93;;;10.90;99.90;;;;;;5059578;28;20889;-59
2022/10/10 07:11:16;;;;;;;6.60;5.10;;;11.20;99.90;;;;;;5058847;28;20894;-59
2022/10/10 07:13:44;;;;;;;7.33;4.87;;;11.50;99.90;;;;;;5057044;28;20494;-58
2022/10/10 07:16:12;;;;;;;5.33;4.40;;;11.80;99.90;;;;;;5057082;28;20433;-61
2022/10/10 07:18:41;;;;;;;5.87;4.47;;;12.00;99.90;;;;;;5058803;28;20764;-61
2022/10/10 07:21:08;;;;;;;7.43;4.97;;;12.30;99.90;;;;;;5058818;28;20466;-61
2022/10/10 07:23:38;;;;;;;5.30;4.80;;;12.60;99.90;;;;;;5059004;28;20468;-61
2022/10/10 07:26:09;;;;;;;7.77;5.00;;;12.80;99.90;;;;;;5058322;28;20462;-58
2022/10/10 07:28:37;;;;;;;6.10;4.10;;;13.10;99.90;;;;;;5058022;28;20447;-61
2022/10/10 07:31:06;;;;;;;10.30;5.60;;;13.40;99.90;;;;;;5057806;28;20441;-61
2022/10/10 07:33:35;;;;;;;4.67;4.17;;;13.70;99.90;;;;;;5057980;28;20535;-60
2022/10/10 07:36:06;;;;;;;7.30;4.27;;;13.80;99.90;;;;;;5056780;28;20553;-61
2022/10/10 07:38:34;;;;;;;6.53;4.20;;;13.80;99.90;;;;;;5057819;28;20469;-61
2022/10/10 07:41:08;;;;;;;8.30;4.33;;;13.80;99.90;;;;;;5057868;28;20465;-62
2022/10/10 07:43:38;;;;;;;5.07;4.37;;;13.90;99.90;;;;;;5057695;28;20862;-60
2022/10/10 07:46:06;;;;;;;7.10;4.13;;;14.00;99.90;;;;;;5058091;28;20937;-61
2022/10/10 07:48:33;;;;;;;7.27;4.57;;;14.00;99.90;;;;;;5058677;28;20489;-59
2022/10/10 07:51:01;;;;;;;5.57;4.60;;;14.10;99.90;;;;;;5058951;28;20918;-59
2022/10/10 07:53:28;;;;;;;4.37;3.47;;;14.30;99.90;;;;;;5058327;28;20584;-59
2022/10/10 07:55:58;;;;;;;5.07;4.30;;;14.40;99.90;;;;;;5058551;28;20443;-62
2022/10/10 07:58:27;;;;;;;4.93;4.00;;;14.50;99.90;;;;;;5058699;28;20465;-58
2022/10/10 08:01:02;;;;;;;5.10;3.50;;;14.70;99.90;;;;;;5058513;28;20490;-60
2022/10/10 08:03:29;;;;;;;4.50;3.60;;;15.00;99.90;;;;;;5057497;28;20903;-62
2022/10/10 08:05:57;;;;;;;7.30;3.67;;;15.20;99.90;;;;;;5056873;28;20926;-61
2022/10/10 08:08:27;;;;;;;8.00;4.83;;;15.50;99.90;;;;;;5057845;28;20437;-61
2022/10/10 08:10:54;;;;;;;6.60;5.83;;;15.60;99.90;;;;;;5057210;28;21002;-61
2022/10/10 08:13:22;;;;;;;5.43;4.00;;;15.60;99.90;;;;;;5056414;28;20505;-60
2022/10/10 08:15:52;;;;;;;8.40;4.77;;;15.70;99.90;;;;;;5057775;28;20519;-60
2022/10/10 08:18:20;;;;;;;5.13;4.00;;;15.80;99.90;;;;;;5057639;28;20473;-61
2022/10/10 08:20:58;;;;;;;7.20;3.70;;;15.70;99.90;;;;;;5058097;28;20494;-62
2022/10/10 08:23:26;;;;;;;8.13;5.30;;;15.70;99.90;;;;;;5057817;28;20497;-62
2022/10/10 08:25:53;;;;;;;6.27;4.20;;;15.70;99.90;;;;;;5058001;28;20462;-60
2022/10/10 08:28:23;;;;;;;4.67;3.63;;;15.50;99.90;;;;;;5057776;28;20462;-62
2022/10/10 08:30:51;;;;;;;5.60;4.03;;;15.50;99.90;;;;;;5058085;28;20560;-62
2022/10/10 08:33:20;;;;;;;5.23;3.70;;;15.60;99.90;;;;;;5056650;28;20494;-62
2022/10/10 08:35:50;;;;;;;5.17;4.23;;;15.80;99.90;;;;;;5057526;28;20459;-61
2022/10/10 08:38:17;;;;;;;4.70;4.13;;;16.10;99.90;;;;;;5058312;28;20477;-62
2022/10/10 08:40:46;;;;;;;5.37;4.07;;;16.20;99.90;;;;;;5056861;28;20958;-62
2022/10/10 08:43:21;;;;;;;6.70;4.40;;;16.20;99.90;;;;;;5057352;28;20748;-61
2022/10/10 08:45:52;;;;;;;5.97;4.50;;;16.40;99.90;;;;;;5057458;28;20472;-63
2022/10/10 08:48:27;;;;;;;5.77;4.27;;;16.40;99.90;;;;;;5038591;28;20838;-61
2022/10/10 08:50:59;;;;;;;6.70;4.37;;;16.20;99.90;;;;;;5037807;28;20533;-62
2022/10/10 08:53:32;;;;;;;9.03;3.97;;;16.00;99.90;;;;;;5037547;28;20498;-62
2022/10/10 08:55:59;;;;;;;7.53;5.20;;;16.10;99.90;;;;;;5037989;28;20731;-61
2022/10/10 08:58:31;;;;;;;7.50;4.10;;;16.40;99.90;;;;;;5037626;28;20467;-62
2022/10/10 09:01:05;;;;;;;9.07;4.53;;;16.40;99.90;;;;;;5037738;28;20463;-60
2022/10/10 09:03:40;;;;;;;5.40;4.27;;;16.60;99.90;;;;;;5037508;28;20462;-62
2022/10/10 09:06:22;;;;;;;5.93;4.40;;;16.80;99.90;;;;;;5037443;28;20553;-61
2022/10/10 09:08:59;;;;;;;7.50;4.90;;;16.90;99.90;;;;;;5037499;28;20499;-62
2022/10/10 09:11:50;;;;;;;6.10;4.43;;;16.80;99.90;;;;;;5037632;28;20745;-62
2022/10/10 09:14:34;;;;;;;5.53;4.67;;;17.00;99.90;;;;;;5036848;28;20483;-62
2022/10/10 09:17:24;;;;;;;5.27;4.77;;;17.10;99.90;;;;;;5037496;28;20918;-62
2022/10/10 09:20:03;;;;;;;8.90;4.07;;;17.40;99.90;;;;;;5037111;28;20458;-62
2022/10/10 09:22:34;;;;;;;6.33;4.40;;;17.50;99.90;;;;;;5037032;28;20454;-62
2022/10/10 09:25:06;;;;;;;8.10;3.70;;;17.80;99.90;;;;;;5036639;28;20495;-62
2022/10/10 09:27:39;;;;;;;5.13;4.17;;;18.00;99.90;;;;;;5036747;28;20465;-62
2022/10/10 09:30:15;;;;;;;7.43;4.67;;;18.30;99.90;;;;;;5036446;28;20490;-62
2022/10/10 09:32:48;;;;;;;8.73;4.50;;;18.50;99.90;;;;;;5036100;28;20504;-62
2022/10/10 09:35:22;;;;;;;8.00;4.07;;;18.30;99.90;;;;;;5036880;28;20477;-61
2022/10/10 09:37:53;;;;;;;6.30;4.63;;;19.00;99.90;;;;;;5036277;28;20905;-62
2022/10/10 09:40:28;;;;;;;5.03;4.50;;;19.20;99.90;;;;;;5037418;28;20473;-62
2022/10/10 09:42:56;;;;;;;6.13;4.10;;;19.10;99.90;;;;;;5036932;28;20859;-62
2022/10/10 09:45:28;;;;;;;8.23;4.47;;;19.60;99.90;;;;;;5036849;28;20473;-62
2022/10/10 09:47:59;;;;;;;7.80;5.10;;;20.00;99.90;;;;;;5036498;28;20554;-63
2022/10/10 09:50:27;;;;;;;8.67;4.20;;;20.00;99.90;;;;;;5036946;28;20763;-62
2022/10/10 09:52:56;;;;;;;4.60;4.20;;;19.90;99.90;;;;;;5035601;28;20498;-60
2022/10/10 09:55:33;;;;;;;5.87;4.30;;;20.10;99.90;;;;;;5036801;28;20466;-63
2022/10/10 09:58:10;;;;;;;6.20;4.20;;;20.40;99.90;;;;;;5036703;28;20514;-61
2022/10/10 10:00:39;;;;;;;7.60;4.07;;;20.90;99.90;;;;;;5036969;28;20564;-61
2022/10/10 10:03:12;;;;;;;4.97;3.50;;;21.20;99.90;;;;;;5036859;28;20455;-62
2022/10/10 10:05:44;;;;;;;5.30;3.87;;;21.40;99.90;;;;;;5036649;28;20470;-63
2022/10/10 10:08:27;;;;;;;7.93;4.00;;;21.60;99.90;;;;;;5036612;28;20471;-62
2022/10/10 10:10:57;;;;;;;7.10;3.50;;;21.50;99.90;;;;;;5036538;28;20463;-61
2022/10/10 10:13:33;;;;;;;4.13;3.50;;;21.40;99.90;;;;;;5035797;28;20680;-63
2022/10/10 10:16:07;;;;;;;7.17;3.30;;;21.50;99.90;;;;;;5035702;28;20462;-62
2022/10/10 10:18:43;;;;;;;4.13;3.00;;;20.90;99.90;;;;;;5036286;28;20438;-63
2022/10/10 10:21:19;;;;;;;4.13;3.33;;;20.70;99.90;;;;;;5054141;28;20457;-62
2022/10/10 10:23:58;;;;;;;4.67;2.87;;;20.80;99.90;;;;;;5051945;28;20450;-62
2022/10/10 10:26:29;;;;;;;6.47;3.10;;;21.40;99.90;;;;;;5054787;28;20457;-63
2022/10/10 10:29:01;;;;;;;7.77;3.87;;;21.30;99.90;;;;;;5055112;28;20765;-59
2022/10/10 10:31:49;;;;;;;7.40;3.60;;;21.20;99.90;;;;;;5052803;28;20454;-62
2022/10/10 10:34:33;;;;;;;5.17;3.93;;;21.10;99.90;;;;;;5054180;28;20517;-60
2022/10/10 10:37:07;;;;;;;3.60;3.30;;;20.50;99.90;;;;;;5054604;28;20451;-62
2022/10/10 10:39:44;;;;;;;6.97;2.87;;;20.30;99.90;;;;;;5054089;28;20428;-61
2022/10/10 10:42:26;;;;;;;7.53;3.40;;;19.90;99.90;;;;;;5054534;28;20545;-62
2022/10/10 10:45:03;;;;;;;4.77;3.80;;;19.70;99.90;;;;;;5054091;28;20550;-59
2022/10/10 10:47:41;;;;;;;5.47;3.90;;;19.60;99.90;;;;;;5054397;28;21173;-61
2022/10/10 10:50:27;;;;;;;5.27;4.00;;;19.80;99.90;;;;;;5047325;28;20466;-61
2022/10/10 10:53:00;;;;;;;8.77;3.73;;;20.10;99.90;;;;;;5052930;28;20519;-63
2022/10/10 10:55:37;;;;;;;6.50;3.63;;;20.60;99.90;;;;;;5049521;28;20472;-62
2022/10/10 10:58:43;;;;;;;5.70;3.47;;;21.30;99.90;;;;;;5053251;28;20593;-62
2022/10/10 11:01:16;;;;;;;4.80;3.20;;;21.90;99.90;;;;;;5053273;28;20494;-63
2022/10/10 11:03:51;;;;;;;9.50;3.63;;;21.80;99.90;;;;;;5050406;28;20474;-63
2022/10/10 11:06:36;;;;;;;6.50;3.23;;;21.80;99.90;;;;;;5049129;28;20477;-64
2022/10/10 11:09:12;;;;;;;8.13;3.57;;;22.00;99.90;;;;;;5053391;28;20466;-63
2022/10/10 11:11:54;;;;;;;5.00;3.47;;;22.00;99.90;;;;;;5056674;28;20466;-63
2022/10/10 11:14:47;;;;;;;7.13;3.57;;;22.00;99.90;;;;;;5062660;28;20547;-62
2022/10/10 11:17:20;;;;;;;6.90;3.50;;;22.10;99.90;;;;;;5056497;28;20481;-63
2022/10/10 11:19:56;;;;;;;5.00;3.20;;;21.30;99.90;;;;;;5053973;28;20480;-63
2022/10/10 11:22:29;;;;;;;5.00;3.30;;;21.30;99.90;;;;;;5056154;28;20474;-64
2022/10/10 11:25:04;;;;;;;5.20;3.17;;;21.60;99.90;;;;;;5058059;28;20496;-62
2022/10/10 11:27:36;;;;;;;5.90;3.40;;;21.80;99.90;;;;;;5056315;28;20800;-62
2022/10/10 11:30:16;;;;;;;7.93;3.73;;;21.80;99.90;;;;;;5056279;28;20472;-64
2022/10/10 11:32:52;;;;;;;5.90;3.30;;;21.50;99.90;;;;;;5058039;28;20852;-60
2022/10/10 11:35:27;;;;;;;7.17;3.67;;;21.40;99.90;;;;;;5058197;28;20441;-62
2022/10/10 11:38:05;;;;;;;7.73;3.30;;;21.00;99.90;;;;;;5058475;28;20488;-63
2022/10/10 11:40:48;;;;;;;4.60;3.50;;;21.10;99.90;;;;;;5058047;28;20465;-61
2022/10/10 11:43:22;;;;;;;7.10;3.80;;;21.40;99.90;;;;;;5058173;28;20508;-63
2022/10/10 11:45:57;;;;;;;7.37;3.43;;;21.30;99.90;;;;;;5057229;28;20537;-62
2022/10/10 11:48:37;;;;;;;4.50;3.30;;;21.10;99.90;;;;;;5057342;28;20464;-63
2022/10/10 11:51:24;;;;;;;9.23;4.00;;;20.90;99.90;;;;;;5058894;28;20464;-61
2022/10/10 11:53:59;;;;;;;10.70;4.10;;;20.70;99.90;;;;;;5058134;28;20490;-63
2022/10/10 11:56:31;;;;;;;7.00;3.67;;;20.40;99.90;;;;;;5058082;28;20469;-61
2022/10/10 11:59:05;;;;;;;9.13;3.70;;;20.60;99.90;;;;;;5058310;28;20959;-63
2022/10/10 12:01:39;;;;;;;6.87;3.30;;;20.30;99.90;;;;;;5057480;28;20466;-60
2022/10/10 12:04:12;;;;;;;7.03;3.23;;;20.60;99.90;;;;;;5057914;28;20459;-61
2022/10/10 12:06:42;;;;;;;9.10;4.07;;;20.60;99.90;;;;;;5057928;28;20469;-63
2022/10/10 12:09:18;;;;;;;9.00;4.10;;;20.20;99.90;;;;;;5058118;28;20937;-62
2022/10/10 12:11:50;;;;;;;9.83;3.87;;;20.10;99.90;;;;;;5057306;28;20528;-62
2022/10/10 12:14:20;;;;;;;9.13;3.73;;;20.10;99.90;;;;;;5057556;28;20473;-62
2022/10/10 12:16:51;;;;;;;10.97;3.93;;;20.20;99.90;;;;;;5056921;28;20906;-59
2022/10/10 12:19:20;;;;;;;10.73;4.60;;;20.30;99.90;;;;;;5057276;28;20458;-61
2022/10/10 12:21:59;;;;;;;7.77;4.37;;;20.10;99.90;;;;;;5057509;28;20469;-62
2022/10/10 12:24:29;;;;;;;10.30;4.53;;;20.00;99.90;;;;;;5055535;28;20466;-61
2022/10/10 12:27:31;;;;;;;9.37;4.63;;;19.90;99.90;;;;;;5056444;28;20899;-62
2022/10/10 12:30:23;;;;;;;8.60;4.67;;;19.80;99.90;;;;;;5055364;28;20774;-62
2022/10/10 12:32:53;;;;;;;7.43;4.90;;;19.50;99.90;;;;;;5053087;28;20832;-61
2022/10/10 12:35:33;;;;;;;6.87;4.33;;;19.40;99.90;;;;;;5054321;28;20454;-61
2022/10/10 12:38:15;;;;;;;5.90;5.00;;;19.50;99.90;;;;;;5053607;28;20450;-60
2022/10/10 12:41:08;;;;;;;7.80;4.57;;;19.50;99.90;;;;;;5053497;28;20454;-62
2022/10/10 12:43:50;;;;;;;6.00;4.20;;;19.50;99.90;;;;;;5053704;28;20435;-61
2022/10/10 12:46:27;;;;;;;7.80;4.33;;;19.50;99.90;;;;;;5054000;28;20462;-60
2022/10/10 12:49:07;;;;;;;7.13;3.80;;;19.30;99.90;;;;;;5053504;28;20464;-62
2022/10/10 12:51:36;;;;;;;8.17;4.17;;;19.60;99.90;;;;;;5053605;28;20509;-62
2022/10/10 12:54:07;;;;;;;8.90;4.57;;;19.40;99.90;;;;;;5054765;28;20482;-60
2022/10/10 12:56:45;;;;;;;5.43;4.93;;;19.50;99.90;;;;;;5053292;28;20826;-61
2022/10/10 12:59:21;;;;;;;6.53;4.63;;;20.10;99.90;;;;;;5053290;28;20808;-62
2022/10/10 13:01:57;;;;;;;17.23;5.00;;;19.80;99.90;;;;;;5054312;28;20461;-62
2022/10/10 13:04:28;;;;;;;7.57;5.03;;;19.60;99.90;;;;;;5053801;28;20461;-60
2022/10/10 13:07:01;;;;;;;7.30;5.20;;;19.60;99.90;;;;;;5055158;28;20524;-62
2022/10/10 13:09:37;;;;;;;7.00;4.47;;;19.70;99.90;;;;;;5054981;28;20898;-61
2022/10/10 13:12:25;;;;;;;5.47;4.30;;;19.70;99.90;;;;;;5056733;28;20454;-62
2022/10/10 13:14:53;;;;;;;9.10;4.50;;;19.80;99.90;;;;;;5036623;28;20477;-61